• Join FlightAware (Why Join?)
  • Login
  • US Flag 
06:26AM EST


 

Airport Tracker/Info


-or-


 

Live Flight TrackerFlight Track Log ✈ DAL6055 ✈ 09-Apr-2013 ✈ KSDF - KDTW

Flight Track Log - Related Links

Times and Time Zones

All times are in EDT time to prevent confusion due to time zone crossing. See the DAL6055 flight status page for this flight to view local times or setup timezone preferences in your user account.

Time Position Orientation Groundspeed Altitude Reporting Facility
EDT Latitude Longitude Course Direction KTS MPH feet Rate Location/Type
11:32AM 38.1539 -85.7378 167° South 150 173 1,300  Level FAA TRACON SMA TRACON (SMA)
11:32AM 38.1406 -85.7339 167° South 156 180 2,000 2,100 Climbing FAA TRACON SMA TRACON (SMA)
11:33AM 38.1222 -85.7336 179° South 170 196 2,700 1,920 Climbing FAA TRACON SMA TRACON (SMA)
11:33AM 38.1064 -85.7333 179° South 179 206 3,300 1,740 Climbing FAA TRACON SMA TRACON (SMA)
11:33AM 38.0908 -85.7389 196° South 192 221 3,900 1,920 Climbing FAA TRACON SMA TRACON (SMA)
11:34AM 38.0781 -85.7608 234° Southwest 210 242 4,600 1,980 Climbing FAA TRACON SMA TRACON (SMA)
11:34AM 38.0769 -85.7856 267° West 227 261 5,200 1,800 Climbing FAA TRACON SMA TRACON (SMA)
11:34AM 38.0761 -85.8122 268° West 241 277 5,800 1,800 Climbing FAA TRACON SMA TRACON (SMA)
11:35AM 38.0750 -85.8400 267° West 251 289 6,400 2,160 Climbing FAA TRACON SMA TRACON (SMA)
11:35AM 38.0794 -85.8753 279° West 265 305 7,300 2,520 Climbing FAA TRACON SMA TRACON (SMA)
11:35AM 38.0914 -85.9008 301° West 275 316 8,100 2,460 Climbing FAA TRACON SMA TRACON (SMA)
11:36AM 38.1119 -85.9181 327° Northwest 287 330 8,900 2,520 Climbing FAA TRACON SMA TRACON (SMA)
11:36AM 38.1428 -85.9297 343° North 300 345 9,800 2,220 Climbing FAA TRACON SMA TRACON (SMA)
11:36AM 38.1681 -85.9392 344° North 305 351 10,400 1,560 Climbing FAA TRACON SMA TRACON (SMA)
11:37AM 38.1942 -85.9478 345° North 311 358 10,900 1,800 Climbing FAA TRACON SMA TRACON (SMA)
11:37AM 38.2269 -85.9589 345° North 318 366 11,600 1,980 Climbing FAA TRACON SMA TRACON (SMA)
11:37AM 38.2536 -85.9675 346° North 322 371 12,200 1,800 Climbing FAA TRACON SMA TRACON (SMA)
11:38AM 38.2808 -85.9767 345° North 325 374 12,800 1,620 Climbing FAA TRACON SMA TRACON (SMA)
11:38AM 38.3078 -85.9861 345° North 326 375 13,300 1,800 Climbing FAA TRACON SMA TRACON (SMA)
11:38AM 38.3417 -85.9983 344° North 328 377 14,000 1,920 Climbing FAA TRACON SMA TRACON (SMA)
11:39AM 38.3692 -86.0072 346° North 329 379 14,600 1,860 Climbing FAA TRACON SMA TRACON (SMA)
11:39AM 38.4033 -86.0197 344° North 331 381 15,300 1,800 Climbing FAA TRACON SMA TRACON (SMA)
11:39AM 38.4311 -86.0292 345° North 333 383 15,800 1,680 Climbing FAA TRACON SMA TRACON (SMA)
11:40AM 38.4581 -86.0400 343° North 332 382 16,400 1,920 Climbing FAA TRACON SMA TRACON (SMA)
11:40AM 38.4922 -86.0531 343° North 332 382 17,100 1,800 Climbing FAA TRACON SMA TRACON (SMA)
11:40AM 38.5203 -86.0625 345° North 336 387 17,600 1,440 Climbing FAA TRACON SMA TRACON (SMA)
11:41AM 38.5478 -86.0719 345° North 335 386 18,100 1,500 Climbing FAA TRACON SMA TRACON (SMA)
11:41AM 38.5744 -86.0836 341° North 332 382 18,600 1,800 Climbing FAA TRACON SMA TRACON (SMA)
11:41AM 38.6106 -86.0847 359° North 341 392 19,300 1,800 Climbing FAA TRACON SMA TRACON (SMA)
11:42AM 38.6394 -86.0733 17° North 348 400 19,800 1,200 Climbing FAA TRACON SMA TRACON (SMA)
11:42AM 38.6547 -86.0592 36° Northeast 350 403 20,100 1,380 Climbing Indianapolis Center
11:43AM 38.7308 -85.9711 42° Northeast 368 423 21,700 1,500 Climbing Indianapolis Center
11:44AM 38.8061 -85.8794 43° Northeast 372 428 23,200 1,560 Climbing Indianapolis Center
11:45AM 38.8994 -85.7678 43° Northeast 379 436 24,900 1,440 Climbing Indianapolis Center
11:46AM 38.9783 -85.6736 43° Northeast 386 444 26,200 1,020 Climbing Indianapolis Center
11:47AM 39.0583 -85.5767 43° Northeast 393 452 27,000 360 Climbing Indianapolis Center
11:48AM 39.1422 -85.4733 44° Northeast 414 476 27,000  Level Indianapolis Center
11:49AM 39.2242 -85.3756 43° Northeast 424 488 27,000  Level Indianapolis Center
11:50AM 39.3247 -85.2522 43° Northeast 425 489 27,000  Level Indianapolis Center
11:51AM 39.4131 -85.1444 43° Northeast 429 494 27,000  Level Indianapolis Center
11:52AM 39.5008 -85.0369 43° Northeast 431 496 27,000  Level Indianapolis Center
11:53AM 39.5875 -84.9292 44° Northeast 430 495 27,000  Level Indianapolis Center
11:54AM 39.6761 -84.8214 43° Northeast 430 495 27,000  Level Indianapolis Center
11:55AM 39.7711 -84.7278 37° Northeast 427 491 27,000  Level Indianapolis Center
11:56AM 39.8875 -84.6872 15° North 430 495 27,000  Level Indianapolis Center
11:57AM 40.0106 -84.6489 13° North 446 513 27,000 -240 Level Indianapolis Center
11:59AM 40.1166 -84.6127 15° North  Level FlightAware Approximate
11:59AM 40.2578 -84.5706 15° North 453 521 26,300  Level Indianapolis Center
12:00PM 40.3772 -84.5319 14° North 441 507 25,300 -1,020 Descending Indianapolis Center
12:01PM 40.4914 -84.4953 14° North 424 488 24,300 -1,080 Descending Indianapolis Center
12:03PM 40.6247 -84.4525 14° North 419 482 23,100 -1,080 Descending Indianapolis Center
12:04PM 40.7381 -84.4169 13° North 414 476 22,100 -540 Descending Indianapolis Center
12:05PM 40.8494 -84.4186 359° North 394 453 22,000 -240 Descending Indianapolis Center
12:06PM 40.9642 -84.4197 360° North 405 466 21,700 -660 Descending Indianapolis Center
12:07PM 41.0778 -84.4233 359° North 405 466 20,700 -1,020 Descending Indianapolis Center
12:08PM 41.1911 -84.4269 359° North 403 464 19,700 -1,020 Descending Indianapolis Center
12:09PM 41.3036 -84.4286 359° North 401 461 18,700 -1,320 Descending Indianapolis Center
12:10PM 41.4117 -84.4319 359° North 391 450 17,200 -1,680 Descending Cleveland Center
12:11PM 41.5094 -84.4322 360° North 371 427 15,500 -1,740 Descending Cleveland Center
12:12PM 41.5956 -84.3542 34° Northeast 352 405 13,800 -1,680 Descending Cleveland Center
12:12PM 41.6239 -84.3167 45° Northeast 401 461 13,200 -1,320 Descending Cleveland Center
12:13PM 41.6586 -84.2717 44° Northeast 363 418 12,500 -780 Descending Cleveland Center
12:14PM 41.7503 -84.1489 45° Northeast 383 441 12,000 -300 Descending Cleveland Center
12:15PM 41.8242 -84.0442 47° Northeast 377 434 12,000  Level Cleveland Center
12:16PM 41.8772 -83.9494 53° Northeast 373 429 12,000  Level Cleveland Center
12:17PM 41.9467 -83.8497 47° Northeast 373 429 12,000  Level Cleveland Center
12:18PM 42.0183 -83.7500 46° Northeast 368 423 12,000  Level Cleveland Center
12:18PM 42.0508 -83.7069 45° Northeast 368 423 12,000 -120 Level Cleveland Center
12:19PM 42.0878 -83.6500 49° Northeast 361 415 11,900  Descending Cleveland Center
12:20PM 42.1000 -83.5019 84° East 343 395 12,000 -420 Climbing Cleveland Center
12:21PM 42.1181 -83.3686 80° East 282 325 11,000 -480 Descending Cleveland Center
12:22PM 42.1408 -83.2772 71° East 274 315 11,000 -660 Level Cleveland Center
12:23PM 42.2111 -83.2183 32° Northeast 289 333 9,700 -1,320 Descending Cleveland Center
12:24PM 42.2769 -83.1622 32° Northeast 276 318 8,400 -1,200 Descending Cleveland Center
12:25PM 42.3450 -83.1089 30° Northeast 250 288 7,200 -1,140 Descending Cleveland Center
12:26PM 42.4031 -83.1194 352° North 226 260 6,000 -1,200 Descending Cleveland Center
12:27PM 42.4036 -83.1869 271° West 207 238 5,000 -1,260 Descending Cleveland Center